• Join FlightAware (Why Join?)
  • Login
  • US Flag 
09:10AM EDT


 

Airport Tracker/Info


-or-


 

Live Flight TrackerFlight Track Log ✈ BOE1 ✈ 19-Mar-2010 ✈ KBFI - KBFI

Flight Track Log - Related Links

Times and Time Zones

All times are in EDT time to prevent confusion due to time zone crossing. See the BOE1 flight status page for this flight to view local times or setup timezone preferences in your user account.

Time Position Orientation Groundspeed Altitude Reporting Facility
EDT Latitude Longitude Course Direction KTS MPH feet Rate Location/Type
01:15PM 47.5519 -122.3240 326° Northwest 155 178 1,100  Level Seattle Center
01:17PM 47.6047 -122.3760 306° West 190 219 3,100 2,100 Climbing Seattle Center
01:18PM 47.6367 -122.4420 341° North 213 245 5,700 2,940 Climbing Seattle Center
01:19PM 47.7044 -122.4760 355° North 227 261 9,000 2,520 Climbing Seattle Center
01:20PM 47.7750 -122.4860 357° North 227 261 10,800 2,100 Climbing Seattle Center
01:21PM 47.8561 -122.4930 358° North 263 303 13,200 2,340 Climbing Seattle Center
01:22PM 47.9433 -122.4970 358° North 291 335 15,600 1,380 Climbing Seattle Center
01:23PM 48.0328 -122.5020 360° North 310 357 16,000 180 Climbing Seattle Center
01:24PM 48.1222 -122.5030 20° North 310 357 16,000 -480 Level Seattle Center
01:25PM 48.2064 -122.4580 78° East 310 357 15,100 -540 Descending Seattle Center
01:26PM 48.2283 -122.3090 108° East 290 334 15,000 -60 Descending Seattle Center
01:27PM 48.1942 -122.1550 110° East 315 362 15,000 120 Level Seattle Center
01:28PM 48.1575 -122.0010 109° East 351 404 15,300 180 Climbing Seattle Center
01:29PM 48.1169 -121.8260 109° East 387 445 15,400 120 Climbing Seattle Center
01:30PM 48.0819 -121.6730 102° East 395 455 15,600 60 Climbing Seattle Center
01:31PM 48.0594 -121.5130 97° East 389 448 15,600 -180 Level Seattle Center
01:32PM 48.0472 -121.3550 93° East 384 442 15,300 -240 Descending Seattle Center
01:33PM 48.0408 -121.1960 92° East 384 442 15,200  Descending Seattle Center
01:34PM 48.0364 -121.0380 94° East 384 442 15,300 -60 Climbing Seattle Center
01:35PM 48.0297 -120.8800 95° East 384 442 15,100 -120 Descending Seattle Center
01:36PM 48.0206 -120.7340 94° East 389 448 15,100 -60 Level Seattle Center
01:37PM 48.0133 -120.5640 93° East 394 453 15,000 -60 Descending Seattle Center
01:38PM 48.0061 -120.3810 95° East 415 478 15,000  Level Seattle Center
01:39PM 47.9944 -120.1950 92° East 435 501 15,100 120 Climbing Seattle Center
01:40PM 47.9908 -120.0090 95° East 441 507 15,300  Climbing Seattle Center
01:41PM 47.9806 -119.8260 94° East 441 507 15,200  Descending Seattle Center
01:42PM 47.9700 -119.6060 93° East 441 507 15,300 120 Climbing Seattle Center
01:43PM 47.9633 -119.4200 96° East 441 507 15,500 -120 Climbing Seattle Center
01:44PM 47.9503 -119.2380 93° East 441 507 15,100 -300 Descending Seattle Center
01:45PM 47.9431 -119.0520 94° East 441 507 15,000 -60 Descending Seattle Center
01:46PM 47.9333 -118.8670 97° East 441 507 15,000  Level Seattle Center
01:47PM 47.9172 -118.6840 98° East 441 507 15,000  Level Seattle Center
01:48PM 47.8986 -118.4960 100° East 441 507 15,100  Climbing Seattle Center
01:49PM 47.8778 -118.3140 101° East 446 513 15,100  Level Seattle Center
01:50PM 47.8525 -118.1290 99° East 446 513 15,200 60 Climbing Seattle Center
01:51PM 47.8333 -117.9480 98° East 446 513 15,300 120 Climbing Seattle Center
01:52PM 47.8156 -117.7630 98° East 446 513 15,500 -60 Climbing Seattle Center
01:53PM 47.7978 -117.5820 97° East 446 513 15,200 -180 Descending Seattle Center
01:54PM 47.7817 -117.3970 98° East 446 513 15,200  Level Seattle Center
01:55PM 47.7631 -117.1940 98° East 446 513 15,300  Climbing Seattle Center
01:56PM 47.7461 -117.0040 95° East 446 513 15,300  Level Seattle Center
01:57PM 47.7356 -116.8230 89° East 446 513 15,300  Level Seattle Center
01:58PM 47.7369 -116.6410 32° Northeast 439 505 15,300  Level Seattle Center
01:59PM 47.8244 -116.5610 298° West 326 375 15,300  Level Seattle Center
02:00PM 47.8739 -116.6980 269° West 190 219 15,300  Level Seattle Center
02:01PM 47.8719 -116.8770 274° West 285 328 15,300 -60 Level Seattle Center
02:02PM 47.8803 -117.0530 276° West 357 411 15,200 -60 Descending Seattle Center
02:03PM 47.8928 -117.2280 276° West 404 465 15,200  Level Seattle Center
02:04PM 47.9044 -117.3980 275° West 424 488 15,200  Level Seattle Center
02:05PM 47.9139 -117.5580 276° West 431 496 15,200 -180 Level Seattle Center
02:06PM 47.9253 -117.7310 277° West 431 496 14,900 -120 Descending Seattle Center
02:07PM 47.9386 -117.9040 276° West 426 490 15,000  Climbing Seattle Center
02:08PM 47.9517 -118.0800 275° West 421 484 15,000  Level Seattle Center
02:09PM 47.9625 -118.2530 276° West 426 490 15,000  Level Seattle Center
02:10PM 47.9747 -118.4230 276° West 421 484 15,000  Level Seattle Center
02:11PM 47.9872 -118.5990 277° West 421 484 15,000  Level Seattle Center
02:12PM 48.0011 -118.7720 277° West 421 484 15,000  Level Seattle Center
02:13PM 48.0150 -118.9460 276° West 421 484 15,000  Level Seattle Center
02:14PM 48.0267 -119.1220 276° West 421 484 15,000  Level Seattle Center
02:15PM 48.0400 -119.2990 277° West 421 484 15,000  Level Seattle Center
02:16PM 48.0531 -119.4690 273° West 421 484 15,000  Level Seattle Center
02:17PM 48.0597 -119.6800 274° West 421 484 15,000 -60 Level Seattle Center
02:18PM 48.0681 -119.8570 266° West 426 490 14,900 -60 Descending Seattle Center
02:19PM 48.0594 -120.0340 198° South 426 490 14,900  Level Seattle Center
02:20PM 47.9428 -120.0890 120° Southeast 368 423 15,000  Climbing Seattle Center
02:21PM 47.8847 -119.9370 92° East 246 283 15,000 60 Level Seattle Center
02:22PM 47.8808 -119.7550 91° East 301 346 15,200 60 Climbing Seattle Center
02:23PM 47.8786 -119.5730 91° East 366 421 15,200 -60 Level Seattle Center
02:24PM 47.8758 -119.3870 93° East 418 481 15,100 -180 Descending Seattle Center
02:25PM 47.8689 -119.2050 98° East 431 496 14,900 -180 Descending Seattle Center
02:26PM 47.8514 -119.0220 98° East 436 502 14,800  Descending Seattle Center
02:27PM 47.8356 -118.8530 93° East 442 509 14,900 60 Climbing Seattle Center
02:28PM 47.8297 -118.6740 115° Southeast 427 491 15,000 120 Climbing Seattle Center
02:29PM 47.7803 -118.5140 101° East 415 478 15,200 120 Climbing Seattle Center
02:30PM 47.7575 -118.3330 91° East 427 491 15,300 180 Climbing Seattle Center
02:31PM 47.7550 -118.1450 90° East 447 514 15,600 60 Climbing Seattle Center
02:32PM 47.7542 -117.9570 89° East 447 514 15,500 -300 Descending Seattle Center
02:33PM 47.7553 -117.7690 90° East 447 514 15,100 -300 Descending Seattle Center
02:34PM 47.7542 -117.5810 91° East 447 514 14,900 -120 Descending Seattle Center
02:35PM 47.7525 -117.3930 90° East 447 514 14,900  Level Seattle Center
02:36PM 47.7522 -117.1860 91° East 452 520 14,900  Level Seattle Center
02:37PM 47.7500 -116.9880 92° East 464 534 15,000 60 Climbing Seattle Center
02:38PM 47.7453 -116.7980 76° East 464 534 15,100  Climbing Seattle Center
02:39PM 47.7739 -116.6200 331° Northwest 437 503 15,100 -120 Level Seattle Center
02:40PM 47.8611 -116.6920 273° West 202 232 14,900 -120 Descending Seattle Center
02:41PM 47.8681 -116.8800 276° West 232 267 14,900 60 Level Seattle Center
02:42PM 47.8808 -117.0650 276° West 364 419 15,100  Climbing Seattle Center
02:43PM 47.8931 -117.2500 275° West 411 473 14,900 -120 Descending Seattle Center
02:44PM 47.9031 -117.4230 274° West 452 520 14,900 -60 Level Seattle Center
02:45PM 47.9106 -117.6050 275° West 459 528 14,800 60 Descending Seattle Center
02:46PM 47.9222 -117.7960 275° West 459 528 15,100 180 Climbing Seattle Center
02:47PM 47.9336 -117.9850 275° West 459 528 15,200  Climbing Seattle Center
02:48PM 47.9447 -118.1790 275° West 466 536 15,200  Level Seattle Center
02:49PM 47.9556 -118.3710 274° West 466 536 15,200 60 Level Seattle Center
02:50PM 47.9639 -118.5630 274° West 466 536 15,400 300 Climbing Seattle Center
02:51PM 47.9719 -118.7540 274° West 466 536 15,800 -120 Climbing Seattle Center
02:52PM 47.9817 -118.9490 278° West 471 542 15,200 -300 Descending Seattle Center
02:53PM 47.9997 -119.1380 278° West 471 542 15,200  Level Seattle Center
02:54PM 48.0172 -119.3300 276° West 471 542 15,300 300 Climbing Seattle Center
02:55PM 48.0303 -119.5220 276° West 471 542 15,800 -120 Climbing Seattle Center
02:56PM 48.0431 -119.7210 277° West 471 542 15,100 -480 Descending Seattle Center
02:57PM 48.0594 -119.9160 280° West 476 548 14,900 480 Descending Seattle Center
02:58PM 48.0819 -120.1080 279° West 481 554 16,100 300 Climbing Seattle Center
02:59PM 48.1022 -120.3040 280° West 481 554 15,600 -420 Descending Seattle Center
03:00PM 48.1242 -120.4970 280° West 481 554 15,300 -180 Descending Seattle Center
03:01PM 48.1478 -120.6930 281° West 481 554 15,300  Level Seattle Center
03:02PM 48.1731 -120.8920 279° West 481 554 15,400 -120 Climbing Seattle Center
03:03PM 48.1958 -121.1070 273° West 486 559 15,100 -360 Descending Seattle Center
03:04PM 48.2017 -121.3030 272° West 481 554 14,700 -300 Descending Seattle Center
03:05PM 48.2072 -121.5060 272° West 481 554 14,600  Descending Seattle Center
03:06PM 48.2106 -121.7080 266° West 486 559 14,800  Climbing Seattle Center
03:07PM 48.2008 -121.9100 262° West 486 559 14,600  Descending Seattle Center
03:08PM 48.1825 -122.1110 240° Southwest 486 559 14,800  Climbing Seattle Center
03:09PM 48.1208 -122.2730 146° Southeast 456 525 14,700 -120 Descending Seattle Center
03:10PM 48.0231 -122.1760 84° East 258 297 14,600 120 Descending Seattle Center
03:11PM 48.0369 -121.9900 82° East 230 265 15,000 180 Climbing Seattle Center
03:12PM 48.0528 -121.8080 81° East 339 390 15,000 540 Level Seattle Center
03:13PM 48.0703 -121.6320 84° East 400 460 16,100 1,440 Climbing Seattle Center
03:14PM 48.0833 -121.4430 93° East 430 495 18,000 2,040 Climbing Seattle Center
03:15PM 48.0756 -121.2560 93° East 470 541 20,300 2,220 Climbing Seattle Center
03:16PM 48.0675 -121.0480 92° East 488 562 22,500 9,420 Climbing Seattle Center
03:17PM 48.0611 -120.8340 96° East 504 580 39,000 2,160 Climbing Seattle Center
03:18PM 48.0464 -120.6200 94° East 515 593 26,800 -4,980 Descending Seattle Center
03:19PM 48.0372 -120.4030 94° East 520 598 29,100 2,280 Climbing Seattle Center
03:20PM 48.0278 -120.1860 94° East 520 598 31,400 2,400 Climbing Seattle Center
03:21PM 48.0178 -119.9750 94° East 520 598 33,900 2,220 Climbing Seattle Center
03:22PM 48.0078 -119.7670 95° East 515 593 35,900 1,920 Climbing Seattle Center
03:23PM 47.9950 -119.5590 95° East 509 586 37,800 1,380 Climbing Seattle Center
03:24PM 47.9819 -119.3550 95° East 498 573 38,700 960 Climbing Seattle Center
03:25PM 47.9686 -119.1510 95° East 498 573 39,800 600 Climbing Seattle Center
03:26PM 47.9569 -118.9500 95° East 498 573 40,000 60 Climbing Seattle Center
03:27PM 47.9450 -118.7490 95° East 493 567 40,000  Level Seattle Center
03:28PM 47.9325 -118.5510 96° East 493 567 40,000 -60 Level Seattle Center
03:29PM 47.9181 -118.3600 95° East 482 555 39,900  Descending Seattle Center
03:30PM 47.9072 -118.1680 94° East 470 541 40,000 120 Climbing Seattle Center
03:31PM 47.8981 -117.9770 91° East 463 533 40,200 180 Climbing Seattle Center
03:32PM 47.8950 -117.7790 92° East 463 533 40,400 60 Climbing Seattle Center
03:33PM 47.8894 -117.5810 98° East 463 533 40,400 -240 Level Seattle Center
03:34PM 47.8708 -117.3810 95° East 478 550 40,000 -240 Descending Seattle Center
03:35PM 47.8581 -117.1710 96° East 478 550 40,000  Level Seattle Center
03:36PM 47.8431 -116.9710 95° East 478 550 40,000 -60 Level Seattle Center
03:37PM 47.8300 -116.7710 96° East 484 557 39,900  Descending Seattle Center
03:38PM 47.8164 -116.5710 66° East 478 550 40,000  Climbing Seattle Center
03:39PM 47.8639 -116.4140 346° North 411 473 40,000  Level Seattle Center
03:40PM 47.9650 -116.4510 278° West 262 302 40,000  Level Seattle Center
03:41PM 47.9822 -116.6260 266° West 248 285 40,000 -180 Level Seattle Center
03:42PM 47.9744 -116.8120 268° West 348 400 39,700 -60 Descending Seattle Center
03:43PM 47.9706 -116.9950 265° West 396 456 39,900 180 Climbing Seattle Center
03:44PM 47.9603 -117.1820 273° West 439 505 40,100  Climbing Seattle Center
03:45PM 47.9664 -117.3640 274° West 445 512 40,000 -60 Descending Seattle Center
03:46PM 47.9736 -117.5280 274° West 445 512 40,000 -240 Level Seattle Center
03:47PM 47.9811 -117.7070 275° West 440 506 39,600 -720 Descending Seattle Center
03:48PM 47.9903 -117.8840 273° West 440 506 38,600 -1,320 Descending Seattle Center
03:49PM 47.9969 -118.0510 274° West 424 488 37,000 -2,220 Descending Seattle Center
03:50PM 48.0058 -118.2270 274° West 424 488 34,200 -2,520 Descending Seattle Center
03:51PM 48.0142 -118.4030 274° West 424 488 32,000 -2,340 Descending Seattle Center
03:52PM 48.0222 -118.5740 275° West 419 482 29,600 -3,180 Descending Seattle Center
03:53PM 48.0322 -118.7440 274° West 419 482 25,600 -2,340 Descending Seattle Center
03:54PM 48.0400 -118.9360 276° West 440 506 25,000 -360 Descending Seattle Center
03:55PM 48.0536 -119.1310 275° West 465 535 24,900 -60 Descending Seattle Center
03:56PM 48.0650 -119.3200 275° West 470 541 24,900  Level Seattle Center
03:57PM 48.0758 -119.5090 275° West 470 541 24,900  Level Seattle Center
03:58PM 48.0867 -119.6990 272° West 464 534 24,900  Level Seattle Center
03:59PM 48.0908 -119.8820 272° West 452 520 25,000  Climbing Seattle Center
04:00PM 48.0947 -120.0620 272° West 447 514 25,000  Level Seattle Center
04:01PM 48.0983 -120.2080 274° West 442 509 25,000  Level Seattle Center
04:02PM 48.1078 -120.4340 273° West 442 509 25,000  Level Seattle Center
04:03PM 48.1150 -120.6210 276° West 448 516 25,000 -300 Level Seattle Center
04:04PM 48.1281 -120.8110 338° Northwest 455 524 24,500 -900 Descending Seattle Center
04:05PM 48.2294 -120.8720 60° Northeast 385 443 23,300 -1,800 Descending Seattle Center
04:06PM 48.2847 -120.7260 104° East 236 272 20,900 -2,340 Descending Seattle Center
04:07PM 48.2547 -120.5420 103° East 247 284 18,600 -3,480 Descending Seattle Center
04:08PM 48.2286 -120.3680 101° East 360 414 14,000 -1,380 Descending Seattle Center
04:09PM 48.2067 -120.1930 99° East 396 456 15,900 720 Climbing Seattle Center
04:10PM 48.1864 -120.0030 97° East 434 499 15,500 -300 Descending Seattle Center
04:11PM 48.1697 -119.8110 97° East 455 524 15,400 60 Descending Seattle Center
04:12PM 48.1531 -119.6210 101° East 460 529 15,700 120 Climbing Seattle Center
04:13PM 48.1278 -119.4320 101° East 466 536 15,700  Level Seattle Center
04:14PM 48.1019 -119.2360 103° East 471 542 15,800  Climbing Seattle Center
04:15PM 48.0719 -119.0350 103° East 471 542 15,700  Descending Seattle Center
04:16PM 48.0414 -118.8400 106° East 484 557 15,900  Climbing Seattle Center
04:17PM 48.0042 -118.6420 107° East 490 564 15,800  Descending Seattle Center
04:18PM 47.9647 -118.4450 105° East 490 564 15,900 60 Climbing Seattle Center
04:19PM 47.9269 -118.2420 103° East 495 570 16,000 60 Climbing Seattle Center
04:20PM 47.8969 -118.0420 103° East 495 570 16,100 -180 Climbing Seattle Center
04:21PM 47.8647 -117.8360 100° East 495 570 15,700 -300 Descending Seattle Center
04:22PM 47.8403 -117.6290 101° East 501 577 15,600  Descending Seattle Center
04:23PM 47.8136 -117.4240 99° East 525 604 15,800  Climbing Seattle Center
04:24PM 47.7881 -117.1990 78° East 519 597 15,600 -120 Descending Seattle Center
04:25PM 47.8131 -117.0220 326° Northwest 451 519 15,600  Level Seattle Center
04:26PM 47.8961 -117.1070 272° West 174 200 15,600 -60 Level Seattle Center
04:27PM 47.9006 -117.3050 272° West 247 284 15,500 -180 Descending Seattle Center
04:28PM 47.9044 -117.4940 274° West 428 493 15,300 -240 Descending Seattle Center
04:29PM 47.9142 -117.6910 274° West 459 528 15,100 -240 Descending Seattle Center
04:30PM 47.9239 -117.8890 276° West 478 550 14,900 -120 Descending Seattle Center
04:31PM 47.9372 -118.0870 275° West 483 556 14,900 -60 Level Seattle Center
04:32PM 47.9481 -118.2690 275° West 467 537 14,800 -120 Descending Seattle Center
04:33PM 47.9583 -118.4450 277° West 448 516 14,700  Descending Seattle Center
04:34PM 47.9728 -118.6120 280° West 430 495 14,800  Climbing Seattle Center
04:35PM 47.9953 -118.8010 279° West 438 504 14,700 240 Descending Seattle Center
04:36PM 48.0153 -118.9920 278° West 462 532 15,400 240 Climbing Seattle Center
04:37PM 48.0331 -119.1910 275° West 474 545 15,200 -240 Descending Seattle Center
04:38PM 48.0444 -119.3890 277° West 480 552 15,000  Descending Seattle Center
04:39PM 48.0594 -119.5840 277° West 480 552 15,300 -300 Climbing Seattle Center
04:40PM 48.0764 -119.7890 277° West 480 552 14,500 -360 Descending Seattle Center
04:41PM 48.0928 -119.9880 277° West 480 552 14,600  Climbing Seattle Center
04:42PM 48.1089 -120.1860 278° West 480 552 14,600 -240 Level Seattle Center
04:43PM 48.1247 -120.3600 271° West 460 529 14,200 -120 Descending Seattle Center
04:44PM 48.1261 -120.5160 272° West 416 479 14,400 120 Climbing Seattle Center
04:45PM 48.1292 -120.6680 271° West 383 441 14,500  Climbing Seattle Center
04:46PM 48.1300 -120.8200 272° West 372 428 14,500  Level Seattle Center
04:47PM 48.1347 -120.9910 270° West 372 428 14,500  Level Seattle Center
04:48PM 48.1353 -121.1120 234° Southwest 372 428 14,500 -540 Level Seattle Center
04:50PM 48.0117 -121.3630 222° Southwest 356 410 13,000 -840 Descending Seattle Center
04:51PM 47.8972 -121.5140 224° Southwest 357 411 11,700 -900 Descending Seattle Center
04:52PM 47.8633 -121.5630 223° Southwest 362 417 11,200 -840 Descending Seattle Center
04:52PM 47.8292 -121.6110 220° Southwest 338 389 10,900 -720 Descending Seattle Center
04:53PM 47.7953 -121.6530 224° Southwest 345 397 10,500 -900 Descending Seattle Center
04:53PM 47.7592 -121.7040 218° Southwest 314 361 10,000 -1,140 Descending Seattle Center
04:54PM 47.7336 -121.7340 224° Southwest 325 374 9,400 -1,620 Descending Seattle Center
04:54PM 47.7017 -121.7790 218° Southwest 275 316 8,400 -1,740 Descending Seattle Center
04:55PM 47.6783 -121.8060 215° Southwest 293 337 7,700 -1,800 Descending Seattle Center
04:55PM 47.6467 -121.8390 210° Southwest 250 288 6,600 -1,920 Descending Seattle Center
04:56PM 47.6233 -121.8590 217° Southwest 264 304 5,800 -1,620 Descending Seattle Center
04:57PM 47.5914 -121.8950 212° Southwest 233 268 5,000 -840 Descending Seattle Center
04:57PM 47.5683 -121.9160 216° Southwest 249 287 5,000  Level Seattle Center
04:58PM 47.5386 -121.9480 214° Southwest 229 264 5,000 -120 Level Seattle Center
04:58PM 47.5172 -121.9690 214° Southwest 244 281 4,900 -540 Descending Seattle Center
04:59PM 47.4856 -122.0010 214° Southwest 229 264 4,500 -900 Descending Seattle Center
04:59PM 47.4642 -122.0220 232° Southwest 244 281 4,000 -1,380 Descending Seattle Center
05:00PM 47.4361 -122.0760 245° Southwest 225 259 3,000 -1,140 Descending Seattle Center
05:00PM 47.4294 -122.0970 246° West 230 265 2,900 -480 Descending Seattle Center
05:01PM 47.4139 -122.1490 262° West 212 244 2,600 -600 Descending Seattle Center
05:01PM 47.4114 -122.1760 303° West 214 246 2,300 -720 Descending Seattle Center
05:02PM 47.4292 -122.2170 329° Northwest 182 209 1,900 -660 Descending Seattle Center
05:02PM 47.4436 -122.2300 326° Northwest 161 185 1,700 -600 Descending Seattle Center
05:03PM 47.4658 -122.2520 339° North 155 178 1,300 -600 Descending Seattle Center
05:03PM 47.4783 -122.2590 325° Northwest 147 169 1,100 -780 Descending Seattle Center
05:04PM 47.4967 -122.2780 334° Northwest 136 157 600 -840 Descending Seattle Center
05:04PM 47.5108 -122.2880 334° Northwest 136 157 300 -600 Descending Seattle Center